sensor_id;sensor_type;location;lat;lon;timestamp;P1;durP1;ratioP1;P2;durP2;ratioP2
5381;SDS011;2714;49.852;6.564;2023-02-28T00:02:11;3.30;;;1.90;;
5381;SDS011;2714;49.852;6.564;2023-02-28T00:06:12;2.50;;;1.97;;
5381;SDS011;2714;49.852;6.564;2023-02-28T00:10:13;6.23;;;2.10;;
5381;SDS011;2714;49.852;6.564;2023-02-28T00:14:20;3.10;;;2.27;;
5381;SDS011;2714;49.852;6.564;2023-02-28T00:18:21;2.40;;;1.87;;
5381;SDS011;2714;49.852;6.564;2023-02-28T00:22:22;3.00;;;2.07;;
5381;SDS011;2714;49.852;6.564;2023-02-28T00:26:23;3.70;;;1.90;;
5381;SDS011;2714;49.852;6.564;2023-02-28T00:30:23;2.43;;;1.93;;
5381;SDS011;2714;49.852;6.564;2023-02-28T00:34:24;2.47;;;1.83;;
5381;SDS011;2714;49.852;6.564;2023-02-28T00:38:25;3.00;;;1.70;;
5381;SDS011;2714;49.852;6.564;2023-02-28T00:42:25;2.13;;;1.60;;
5381;SDS011;2714;49.852;6.564;2023-02-28T00:46:27;4.70;;;2.03;;
5381;SDS011;2714;49.852;6.564;2023-02-28T00:50:27;4.17;;;2.00;;
5381;SDS011;2714;49.852;6.564;2023-02-28T00:54:28;3.13;;;1.80;;
5381;SDS011;2714;49.852;6.564;2023-02-28T00:58:29;4.67;;;1.97;;
5381;SDS011;2714;49.852;6.564;2023-02-28T01:02:29;33.57;;;13.67;;
5381;SDS011;2714;49.852;6.564;2023-02-28T01:06:30;9.00;;;5.17;;
5381;SDS011;2714;49.852;6.564;2023-02-28T01:10:31;4.30;;;2.60;;
5381;SDS011;2714;49.852;6.564;2023-02-28T01:14:32;3.40;;;2.60;;
5381;SDS011;2714;49.852;6.564;2023-02-28T01:18:33;6.43;;;2.70;;
5381;SDS011;2714;49.852;6.564;2023-02-28T01:22:34;3.07;;;2.20;;
5381;SDS011;2714;49.852;6.564;2023-02-28T01:26:35;4.00;;;2.70;;
5381;SDS011;2714;49.852;6.564;2023-02-28T01:30:36;4.77;;;2.63;;
5381;SDS011;2714;49.852;6.564;2023-02-28T01:34:36;8.53;;;2.77;;
5381;SDS011;2714;49.852;6.564;2023-02-28T01:38:37;5.40;;;2.80;;
5381;SDS011;2714;49.852;6.564;2023-02-28T01:42:38;4.77;;;2.47;;
5381;SDS011;2714;49.852;6.564;2023-02-28T01:46:38;3.57;;;2.57;;
5381;SDS011;2714;49.852;6.564;2023-02-28T01:50:39;4.40;;;2.80;;
5381;SDS011;2714;49.852;6.564;2023-02-28T01:54:43;4.00;;;2.70;;
5381;SDS011;2714;49.852;6.564;2023-02-28T01:58:52;4.23;;;2.30;;
5381;SDS011;2714;49.852;6.564;2023-02-28T02:02:55;3.37;;;2.33;;
5381;SDS011;2714;49.852;6.564;2023-02-28T02:06:58;3.73;;;2.30;;
5381;SDS011;2714;49.852;6.564;2023-02-28T02:11:00;3.67;;;2.33;;
5381;SDS011;2714;49.852;6.564;2023-02-28T02:15:07;2.70;;;2.37;;
5381;SDS011;2714;49.852;6.564;2023-02-28T02:37:36;6.80;;;3.10;;
5381;SDS011;2714;49.852;6.564;2023-02-28T02:41:46;4.30;;;2.90;;
5381;SDS011;2714;49.852;6.564;2023-02-28T02:49:57;5.77;;;3.53;;
5381;SDS011;2714;49.852;6.564;2023-02-28T02:58:09;7.77;;;4.30;;
5381;SDS011;2714;49.852;6.564;2023-02-28T03:02:14;4.43;;;2.83;;
5381;SDS011;2714;49.852;6.564;2023-02-28T03:06:16;4.67;;;3.20;;
5381;SDS011;2714;49.852;6.564;2023-02-28T03:10:27;5.97;;;3.57;;
5381;SDS011;2714;49.852;6.564;2023-02-28T03:14:55;6.90;;;3.50;;
5381;SDS011;2714;49.852;6.564;2023-02-28T03:23:59;4.50;;;3.50;;
5381;SDS011;2714;49.852;6.564;2023-02-28T03:36:30;6.43;;;3.90;;
5381;SDS011;2714;49.852;6.564;2023-02-28T03:40:43;6.53;;;4.60;;
5381;SDS011;2714;49.852;6.564;2023-02-28T03:44:52;6.37;;;3.80;;
5381;SDS011;2714;49.852;6.564;2023-02-28T03:49:03;5.50;;;4.37;;
5381;SDS011;2714;49.852;6.564;2023-02-28T04:05:48;9.30;;;5.47;;
5381;SDS011;2714;49.852;6.564;2023-02-28T04:09:54;8.17;;;5.50;;
5381;SDS011;2714;49.852;6.564;2023-02-28T04:13:55;8.00;;;4.90;;
5381;SDS011;2714;49.852;6.564;2023-02-28T04:17:55;6.80;;;5.10;;
5381;SDS011;2714;49.852;6.564;2023-02-28T04:21:56;11.40;;;7.33;;
5381;SDS011;2714;49.852;6.564;2023-02-28T04:25:56;9.27;;;5.10;;
5381;SDS011;2714;49.852;6.564;2023-02-28T04:29:57;10.00;;;5.90;;
5381;SDS011;2714;49.852;6.564;2023-02-28T04:33:59;10.43;;;6.30;;
5381;SDS011;2714;49.852;6.564;2023-02-28T04:38:00;13.37;;;6.63;;
5381;SDS011;2714;49.852;6.564;2023-02-28T04:42:01;10.40;;;6.27;;
5381;SDS011;2714;49.852;6.564;2023-02-28T04:46:02;10.83;;;6.00;;
5381;SDS011;2714;49.852;6.564;2023-02-28T04:50:04;7.67;;;5.67;;
5381;SDS011;2714;49.852;6.564;2023-02-28T04:54:05;8.70;;;4.80;;
5381;SDS011;2714;49.852;6.564;2023-02-28T04:58:06;12.70;;;5.43;;
5381;SDS011;2714;49.852;6.564;2023-02-28T05:02:06;11.60;;;7.03;;
5381;SDS011;2714;49.852;6.564;2023-02-28T05:06:07;10.87;;;6.50;;
5381;SDS011;2714;49.852;6.564;2023-02-28T05:10:09;11.23;;;5.70;;
5381;SDS011;2714;49.852;6.564;2023-02-28T05:14:11;9.37;;;6.43;;
5381;SDS011;2714;49.852;6.564;2023-02-28T05:18:13;11.00;;;6.47;;
5381;SDS011;2714;49.852;6.564;2023-02-28T05:22:14;7.73;;;5.73;;
5381;SDS011;2714;49.852;6.564;2023-02-28T05:26:16;11.87;;;7.00;;
5381;SDS011;2714;49.852;6.564;2023-02-28T05:30:17;8.87;;;6.37;;
5381;SDS011;2714;49.852;6.564;2023-02-28T05:34:17;9.40;;;6.70;;
5381;SDS011;2714;49.852;6.564;2023-02-28T05:38:18;16.77;;;8.60;;
5381;SDS011;2714;49.852;6.564;2023-02-28T05:42:19;12.20;;;8.10;;
5381;SDS011;2714;49.852;6.564;2023-02-28T05:46:20;11.17;;;6.90;;
5381;SDS011;2714;49.852;6.564;2023-02-28T05:50:21;10.50;;;6.90;;
5381;SDS011;2714;49.852;6.564;2023-02-28T05:54:21;9.87;;;6.90;;
5381;SDS011;2714;49.852;6.564;2023-02-28T05:58:22;8.77;;;6.33;;
5381;SDS011;2714;49.852;6.564;2023-02-28T06:02:23;10.23;;;6.80;;
5381;SDS011;2714;49.852;6.564;2023-02-28T06:06:24;10.20;;;5.80;;
5381;SDS011;2714;49.852;6.564;2023-02-28T06:10:24;10.17;;;7.47;;
5381;SDS011;2714;49.852;6.564;2023-02-28T06:14:25;9.77;;;5.33;;
5381;SDS011;2714;49.852;6.564;2023-02-28T06:18:25;9.37;;;6.37;;
5381;SDS011;2714;49.852;6.564;2023-02-28T06:22:26;9.63;;;6.97;;
5381;SDS011;2714;49.852;6.564;2023-02-28T06:26:27;10.17;;;6.27;;
5381;SDS011;2714;49.852;6.564;2023-02-28T06:30:27;8.60;;;6.77;;
5381;SDS011;2714;49.852;6.564;2023-02-28T06:34:29;8.97;;;6.17;;
5381;SDS011;2714;49.852;6.564;2023-02-28T06:38:30;13.20;;;7.80;;
5381;SDS011;2714;49.852;6.564;2023-02-28T06:42:31;15.40;;;8.23;;
5381;SDS011;2714;49.852;6.564;2023-02-28T06:46:32;9.53;;;6.90;;
5381;SDS011;2714;49.852;6.564;2023-02-28T06:50:32;10.60;;;6.70;;
5381;SDS011;2714;49.852;6.564;2023-02-28T06:54:33;10.70;;;6.30;;
5381;SDS011;2714;49.852;6.564;2023-02-28T06:58:34;5.57;;;4.30;;
5381;SDS011;2714;49.852;6.564;2023-02-28T07:02:35;7.90;;;5.37;;
5381;SDS011;2714;49.852;6.564;2023-02-28T07:06:37;8.57;;;5.23;;
5381;SDS011;2714;49.852;6.564;2023-02-28T07:10:38;10.50;;;6.80;;
5381;SDS011;2714;49.852;6.564;2023-02-28T07:14:39;9.20;;;5.80;;
5381;SDS011;2714;49.852;6.564;2023-02-28T07:18:39;10.03;;;5.67;;
5381;SDS011;2714;49.852;6.564;2023-02-28T07:22:40;11.17;;;6.30;;
5381;SDS011;2714;49.852;6.564;2023-02-28T07:26:41;8.50;;;5.10;;
5381;SDS011;2714;49.852;6.564;2023-02-28T07:30:42;14.60;;;6.40;;
5381;SDS011;2714;49.852;6.564;2023-02-28T07:34:42;9.00;;;5.80;;
5381;SDS011;2714;49.852;6.564;2023-02-28T07:38:44;7.70;;;5.47;;
5381;SDS011;2714;49.852;6.564;2023-02-28T07:42:48;10.10;;;5.93;;
5381;SDS011;2714;49.852;6.564;2023-02-28T07:46:48;11.10;;;7.53;;
5381;SDS011;2714;49.852;6.564;2023-02-28T07:50:55;11.33;;;7.07;;
5381;SDS011;2714;49.852;6.564;2023-02-28T07:54:56;7.03;;;5.13;;
5381;SDS011;2714;49.852;6.564;2023-02-28T07:58:57;8.57;;;5.90;;
5381;SDS011;2714;49.852;6.564;2023-02-28T08:02:57;7.53;;;5.57;;
5381;SDS011;2714;49.852;6.564;2023-02-28T08:06:58;7.87;;;5.70;;
5381;SDS011;2714;49.852;6.564;2023-02-28T08:10:59;7.20;;;5.87;;
5381;SDS011;2714;49.852;6.564;2023-02-28T08:15:01;6.80;;;5.63;;
5381;SDS011;2714;49.852;6.564;2023-02-28T08:19:01;6.20;;;5.50;;
5381;SDS011;2714;49.852;6.564;2023-02-28T08:23:02;8.50;;;5.80;;
5381;SDS011;2714;49.852;6.564;2023-02-28T08:27:02;6.40;;;5.57;;
5381;SDS011;2714;49.852;6.564;2023-02-28T08:31:06;6.07;;;5.43;;
5381;SDS011;2714;49.852;6.564;2023-02-28T08:35:11;7.57;;;5.20;;
5381;SDS011;2714;49.852;6.564;2023-02-28T08:39:12;6.20;;;5.60;;
5381;SDS011;2714;49.852;6.564;2023-02-28T08:43:12;6.83;;;5.53;;
5381;SDS011;2714;49.852;6.564;2023-02-28T08:47:13;8.13;;;5.77;;
5381;SDS011;2714;49.852;6.564;2023-02-28T08:51:14;6.60;;;5.20;;
5381;SDS011;2714;49.852;6.564;2023-02-28T08:55:18;6.43;;;5.67;;
5381;SDS011;2714;49.852;6.564;2023-02-28T08:59:19;6.73;;;5.67;;
5381;SDS011;2714;49.852;6.564;2023-02-28T09:03:20;6.67;;;5.97;;
5381;SDS011;2714;49.852;6.564;2023-02-28T09:07:21;5.30;;;4.80;;
5381;SDS011;2714;49.852;6.564;2023-02-28T09:11:22;6.43;;;5.77;;
5381;SDS011;2714;49.852;6.564;2023-02-28T09:15:22;7.73;;;5.23;;
5381;SDS011;2714;49.852;6.564;2023-02-28T09:19:23;7.80;;;7.00;;
5381;SDS011;2714;49.852;6.564;2023-02-28T09:23:23;6.63;;;4.53;;
5381;SDS011;2714;49.852;6.564;2023-02-28T09:27:24;5.47;;;4.60;;
5381;SDS011;2714;49.852;6.564;2023-02-28T09:31:26;6.10;;;4.40;;
5381;SDS011;2714;49.852;6.564;2023-02-28T09:35:28;6.70;;;4.77;;
5381;SDS011;2714;49.852;6.564;2023-02-28T09:39:28;5.20;;;4.53;;
5381;SDS011;2714;49.852;6.564;2023-02-28T09:43:31;6.03;;;3.90;;
5381;SDS011;2714;49.852;6.564;2023-02-28T09:47:39;5.43;;;4.50;;
5381;SDS011;2714;49.852;6.564;2023-02-28T09:55:49;4.70;;;4.07;;
5381;SDS011;2714;49.852;6.564;2023-02-28T10:00:03;5.30;;;4.30;;
5381;SDS011;2714;49.852;6.564;2023-02-28T10:05:09;6.40;;;3.83;;
5381;SDS011;2714;49.852;6.564;2023-02-28T10:13:04;6.80;;;3.90;;
5381;SDS011;2714;49.852;6.564;2023-02-28T10:17:19;8.60;;;6.70;;
5381;SDS011;2714;49.852;6.564;2023-02-28T10:21:25;7.43;;;4.20;;
5381;SDS011;2714;49.852;6.564;2023-02-28T10:25:27;6.27;;;4.97;;
5381;SDS011;2714;49.852;6.564;2023-02-28T10:29:30;6.80;;;4.80;;
5381;SDS011;2714;49.852;6.564;2023-02-28T10:33:33;6.37;;;4.73;;
5381;SDS011;2714;49.852;6.564;2023-02-28T10:37:37;8.03;;;5.50;;
5381;SDS011;2714;49.852;6.564;2023-02-28T10:41:42;10.10;;;6.87;;
5381;SDS011;2714;49.852;6.564;2023-02-28T10:49:55;44.83;;;25.90;;
5381;SDS011;2714;49.852;6.564;2023-02-28T10:53:56;9.90;;;6.70;;
5381;SDS011;2714;49.852;6.564;2023-02-28T10:57:56;11.10;;;7.20;;
5381;SDS011;2714;49.852;6.564;2023-02-28T11:01:57;22.87;;;14.37;;
5381;SDS011;2714;49.852;6.564;2023-02-28T11:05:58;7.27;;;6.50;;
5381;SDS011;2714;49.852;6.564;2023-02-28T11:10:04;7.43;;;6.63;;
5381;SDS011;2714;49.852;6.564;2023-02-28T11:14:05;5.97;;;5.33;;
5381;SDS011;2714;49.852;6.564;2023-02-28T11:18:19;6.07;;;5.30;;
5381;SDS011;2714;49.852;6.564;2023-02-28T11:22:30;5.90;;;5.30;;
5381;SDS011;2714;49.852;6.564;2023-02-28T11:26:40;6.30;;;5.17;;
5381;SDS011;2714;49.852;6.564;2023-02-28T11:30:43;7.83;;;5.50;;
5381;SDS011;2714;49.852;6.564;2023-02-28T11:34:44;5.60;;;4.73;;
5381;SDS011;2714;49.852;6.564;2023-02-28T11:38:45;8.10;;;5.23;;
5381;SDS011;2714;49.852;6.564;2023-02-28T11:47:12;9.47;;;6.37;;
5381;SDS011;2714;49.852;6.564;2023-02-28T11:51:23;9.30;;;7.30;;
5381;SDS011;2714;49.852;6.564;2023-02-28T11:55:37;7.83;;;6.03;;
5381;SDS011;2714;49.852;6.564;2023-02-28T12:08:36;9.27;;;7.87;;
5381;SDS011;2714;49.852;6.564;2023-02-28T12:34:03;7.33;;;6.10;;
5381;SDS011;2714;49.852;6.564;2023-02-28T12:38:19;11.77;;;8.57;;
5381;SDS011;2714;49.852;6.564;2023-02-28T12:42:28;9.53;;;5.60;;
5381;SDS011;2714;49.852;6.564;2023-02-28T12:46:48;8.90;;;5.87;;
5381;SDS011;2714;49.852;6.564;2023-02-28T12:50:50;7.47;;;5.40;;
5381;SDS011;2714;49.852;6.564;2023-02-28T12:54:52;7.67;;;6.43;;
5381;SDS011;2714;49.852;6.564;2023-02-28T12:59:02;5.77;;;4.53;;
5381;SDS011;2714;49.852;6.564;2023-02-28T13:11:58;7.03;;;4.40;;
5381;SDS011;2714;49.852;6.564;2023-02-28T13:16:06;6.10;;;5.07;;
5381;SDS011;2714;49.852;6.564;2023-02-28T13:20:16;9.37;;;5.33;;
5381;SDS011;2714;49.852;6.564;2023-02-28T13:45:31;8.60;;;5.83;;
5381;SDS011;2714;49.852;6.564;2023-02-28T13:49:38;8.13;;;6.90;;
5381;SDS011;2714;49.852;6.564;2023-02-28T13:53:51;7.10;;;4.63;;
5381;SDS011;2714;49.852;6.564;2023-02-28T13:58:09;6.90;;;5.43;;
5381;SDS011;2714;49.852;6.564;2023-02-28T14:02:35;5.90;;;4.67;;
5381;SDS011;2714;49.852;6.564;2023-02-28T14:06:53;5.73;;;5.00;;
5381;SDS011;2714;49.852;6.564;2023-02-28T14:11:04;7.03;;;5.30;;
5381;SDS011;2714;49.852;6.564;2023-02-28T14:15:26;7.40;;;5.60;;
5381;SDS011;2714;49.852;6.564;2023-02-28T14:19:34;7.80;;;6.00;;
5381;SDS011;2714;49.852;6.564;2023-02-28T14:28:21;9.50;;;4.73;;
5381;SDS011;2714;49.852;6.564;2023-02-28T14:32:30;9.57;;;6.67;;
5381;SDS011;2714;49.852;6.564;2023-02-28T14:36:36;8.30;;;5.87;;
5381;SDS011;2714;49.852;6.564;2023-02-28T14:40:37;7.90;;;6.07;;
5381;SDS011;2714;49.852;6.564;2023-02-28T14:44:39;6.77;;;5.70;;
5381;SDS011;2714;49.852;6.564;2023-02-28T14:48:39;8.03;;;6.13;;
5381;SDS011;2714;49.852;6.564;2023-02-28T14:52:42;7.00;;;5.10;;
5381;SDS011;2714;49.852;6.564;2023-02-28T14:56:43;6.70;;;5.17;;
5381;SDS011;2714;49.852;6.564;2023-02-28T15:00:49;7.57;;;4.77;;
5381;SDS011;2714;49.852;6.564;2023-02-28T15:04:55;10.27;;;6.47;;
5381;SDS011;2714;49.852;6.564;2023-02-28T15:09:16;8.33;;;5.33;;
5381;SDS011;2714;49.852;6.564;2023-02-28T15:13:18;8.80;;;5.90;;
5381;SDS011;2714;49.852;6.564;2023-02-28T15:17:21;8.40;;;5.50;;
5381;SDS011;2714;49.852;6.564;2023-02-28T15:21:32;8.33;;;5.70;;
5381;SDS011;2714;49.852;6.564;2023-02-28T15:25:38;12.80;;;5.70;;
5381;SDS011;2714;49.852;6.564;2023-02-28T15:29:45;8.80;;;6.03;;
5381;SDS011;2714;49.852;6.564;2023-02-28T15:33:57;9.07;;;6.67;;
5381;SDS011;2714;49.852;6.564;2023-02-28T15:38:14;6.57;;;5.03;;
5381;SDS011;2714;49.852;6.564;2023-02-28T15:42:27;7.03;;;5.20;;
5381;SDS011;2714;49.852;6.564;2023-02-28T15:46:29;8.40;;;5.97;;
5381;SDS011;2714;49.852;6.564;2023-02-28T15:50:29;7.53;;;5.20;;
5381;SDS011;2714;49.852;6.564;2023-02-28T15:54:32;20.83;;;7.40;;
5381;SDS011;2714;49.852;6.564;2023-02-28T15:58:35;10.97;;;6.10;;
5381;SDS011;2714;49.852;6.564;2023-02-28T16:02:37;14.43;;;6.43;;
5381;SDS011;2714;49.852;6.564;2023-02-28T16:06:39;7.17;;;5.60;;
5381;SDS011;2714;49.852;6.564;2023-02-28T16:10:44;35.67;;;9.53;;
5381;SDS011;2714;49.852;6.564;2023-02-28T16:14:51;17.67;;;6.77;;
5381;SDS011;2714;49.852;6.564;2023-02-28T16:18:54;14.30;;;6.93;;
5381;SDS011;2714;49.852;6.564;2023-02-28T16:22:54;10.07;;;6.60;;
5381;SDS011;2714;49.852;6.564;2023-02-28T16:26:56;8.17;;;6.53;;
5381;SDS011;2714;49.852;6.564;2023-02-28T16:30:57;14.60;;;7.70;;
5381;SDS011;2714;49.852;6.564;2023-02-28T16:35:02;15.23;;;7.50;;
5381;SDS011;2714;49.852;6.564;2023-02-28T16:39:03;24.57;;;7.77;;
5381;SDS011;2714;49.852;6.564;2023-02-28T16:43:05;18.87;;;7.27;;
5381;SDS011;2714;49.852;6.564;2023-02-28T16:47:10;9.57;;;6.80;;
5381;SDS011;2714;49.852;6.564;2023-02-28T16:51:12;9.60;;;6.60;;
5381;SDS011;2714;49.852;6.564;2023-02-28T16:55:13;14.37;;;6.93;;
5381;SDS011;2714;49.852;6.564;2023-02-28T16:59:15;18.20;;;7.17;;
5381;SDS011;2714;49.852;6.564;2023-02-28T17:03:26;15.93;;;7.00;;
5381;SDS011;2714;49.852;6.564;2023-02-28T17:07:27;14.03;;;6.50;;
5381;SDS011;2714;49.852;6.564;2023-02-28T17:11:28;12.10;;;6.83;;
5381;SDS011;2714;49.852;6.564;2023-02-28T17:15:29;10.70;;;7.20;;
5381;SDS011;2714;49.852;6.564;2023-02-28T17:19:30;11.10;;;6.30;;
5381;SDS011;2714;49.852;6.564;2023-02-28T17:23:31;11.23;;;7.17;;
5381;SDS011;2714;49.852;6.564;2023-02-28T17:27:32;9.30;;;6.50;;
5381;SDS011;2714;49.852;6.564;2023-02-28T17:31:32;9.10;;;6.40;;
5381;SDS011;2714;49.852;6.564;2023-02-28T17:35:38;9.40;;;7.10;;
5381;SDS011;2714;49.852;6.564;2023-02-28T17:39:39;12.60;;;7.50;;
5381;SDS011;2714;49.852;6.564;2023-02-28T17:43:40;12.90;;;7.10;;
5381;SDS011;2714;49.852;6.564;2023-02-28T17:47:41;9.77;;;7.37;;
5381;SDS011;2714;49.852;6.564;2023-02-28T17:51:43;9.33;;;7.17;;
5381;SDS011;2714;49.852;6.564;2023-02-28T17:55:44;9.17;;;6.70;;
5381;SDS011;2714;49.852;6.564;2023-02-28T17:59:45;14.93;;;8.60;;
5381;SDS011;2714;49.852;6.564;2023-02-28T18:03:46;11.93;;;7.57;;
5381;SDS011;2714;49.852;6.564;2023-02-28T18:07:47;9.40;;;6.80;;
5381;SDS011;2714;49.852;6.564;2023-02-28T18:11:48;18.77;;;10.50;;
5381;SDS011;2714;49.852;6.564;2023-02-28T18:15:49;18.40;;;10.27;;
5381;SDS011;2714;49.852;6.564;2023-02-28T18:19:50;16.20;;;11.33;;
5381;SDS011;2714;49.852;6.564;2023-02-28T18:23:51;10.20;;;7.40;;
5381;SDS011;2714;49.852;6.564;2023-02-28T18:27:52;14.43;;;8.77;;
5381;SDS011;2714;49.852;6.564;2023-02-28T18:31:53;13.27;;;8.50;;
5381;SDS011;2714;49.852;6.564;2023-02-28T18:35:55;11.77;;;8.00;;
5381;SDS011;2714;49.852;6.564;2023-02-28T18:39:56;17.37;;;11.33;;
5381;SDS011;2714;49.852;6.564;2023-02-28T18:43:57;25.40;;;13.30;;
5381;SDS011;2714;49.852;6.564;2023-02-28T18:48:01;38.03;;;17.77;;
5381;SDS011;2714;49.852;6.564;2023-02-28T18:52:03;36.63;;;16.80;;
5381;SDS011;2714;49.852;6.564;2023-02-28T18:56:04;47.60;;;21.60;;
5381;SDS011;2714;49.852;6.564;2023-02-28T19:00:05;49.00;;;20.90;;
5381;SDS011;2714;49.852;6.564;2023-02-28T19:04:09;51.80;;;21.73;;
5381;SDS011;2714;49.852;6.564;2023-02-28T19:08:12;35.63;;;16.73;;
5381;SDS011;2714;49.852;6.564;2023-02-28T19:12:12;15.23;;;9.83;;
5381;SDS011;2714;49.852;6.564;2023-02-28T19:16:16;68.00;;;31.30;;
5381;SDS011;2714;49.852;6.564;2023-02-28T19:20:18;71.73;;;32.83;;
5381;SDS011;2714;49.852;6.564;2023-02-28T19:24:19;73.67;;;32.57;;
5381;SDS011;2714;49.852;6.564;2023-02-28T19:28:20;78.80;;;31.47;;
5381;SDS011;2714;49.852;6.564;2023-02-28T19:32:20;66.17;;;26.70;;
5381;SDS011;2714;49.852;6.564;2023-02-28T19:36:21;36.80;;;16.10;;
5381;SDS011;2714;49.852;6.564;2023-02-28T19:40:22;21.90;;;11.53;;
5381;SDS011;2714;49.852;6.564;2023-02-28T19:44:22;29.37;;;14.30;;
5381;SDS011;2714;49.852;6.564;2023-02-28T19:48:23;45.70;;;20.67;;
5381;SDS011;2714;49.852;6.564;2023-02-28T19:52:26;32.03;;;17.90;;
5381;SDS011;2714;49.852;6.564;2023-02-28T19:56:27;51.70;;;26.13;;
5381;SDS011;2714;49.852;6.564;2023-02-28T20:00:27;50.73;;;27.23;;
5381;SDS011;2714;49.852;6.564;2023-02-28T20:04:28;41.00;;;23.73;;
5381;SDS011;2714;49.852;6.564;2023-02-28T20:08:29;16.40;;;11.13;;
5381;SDS011;2714;49.852;6.564;2023-02-28T20:12:29;13.60;;;9.80;;
5381;SDS011;2714;49.852;6.564;2023-02-28T20:16:30;13.13;;;9.50;;
5381;SDS011;2714;49.852;6.564;2023-02-28T20:20:31;19.50;;;9.97;;
5381;SDS011;2714;49.852;6.564;2023-02-28T20:24:35;13.10;;;8.90;;
5381;SDS011;2714;49.852;6.564;2023-02-28T20:28:36;15.10;;;11.53;;
5381;SDS011;2714;49.852;6.564;2023-02-28T20:32:38;17.83;;;12.87;;
5381;SDS011;2714;49.852;6.564;2023-02-28T20:36:39;13.40;;;9.00;;
5381;SDS011;2714;49.852;6.564;2023-02-28T20:40:39;16.50;;;10.20;;
5381;SDS011;2714;49.852;6.564;2023-02-28T20:44:40;16.37;;;11.20;;
5381;SDS011;2714;49.852;6.564;2023-02-28T20:48:40;12.80;;;8.93;;
5381;SDS011;2714;49.852;6.564;2023-02-28T20:52:41;11.90;;;8.50;;
5381;SDS011;2714;49.852;6.564;2023-02-28T20:56:43;20.00;;;11.53;;
5381;SDS011;2714;49.852;6.564;2023-02-28T21:00:43;28.90;;;16.83;;
5381;SDS011;2714;49.852;6.564;2023-02-28T21:04:44;20.97;;;12.30;;
5381;SDS011;2714;49.852;6.564;2023-02-28T21:08:45;13.53;;;9.80;;
5381;SDS011;2714;49.852;6.564;2023-02-28T21:12:48;15.43;;;8.97;;
5381;SDS011;2714;49.852;6.564;2023-02-28T21:16:49;10.63;;;8.70;;
5381;SDS011;2714;49.852;6.564;2023-02-28T21:20:49;11.80;;;8.30;;
5381;SDS011;2714;49.852;6.564;2023-02-28T21:24:50;13.03;;;7.50;;
5381;SDS011;2714;49.852;6.564;2023-02-28T21:28:52;15.13;;;11.50;;
5381;SDS011;2714;49.852;6.564;2023-02-28T21:32:54;20.87;;;12.93;;
5381;SDS011;2714;49.852;6.564;2023-02-28T21:36:56;17.33;;;9.63;;
5381;SDS011;2714;49.852;6.564;2023-02-28T21:41:07;15.97;;;8.90;;
5381;SDS011;2714;49.852;6.564;2023-02-28T21:45:09;16.13;;;8.93;;
5381;SDS011;2714;49.852;6.564;2023-02-28T21:49:10;14.27;;;8.90;;
5381;SDS011;2714;49.852;6.564;2023-02-28T21:53:11;12.90;;;8.40;;
5381;SDS011;2714;49.852;6.564;2023-02-28T21:57:11;12.17;;;8.13;;
5381;SDS011;2714;49.852;6.564;2023-02-28T22:01:20;14.33;;;9.53;;
5381;SDS011;2714;49.852;6.564;2023-02-28T22:05:21;9.80;;;6.80;;
5381;SDS011;2714;49.852;6.564;2023-02-28T22:09:21;12.13;;;8.07;;
5381;SDS011;2714;49.852;6.564;2023-02-28T22:13:22;16.47;;;10.03;;
5381;SDS011;2714;49.852;6.564;2023-02-28T22:17:22;12.53;;;8.73;;
5381;SDS011;2714;49.852;6.564;2023-02-28T22:21:23;14.00;;;9.20;;
5381;SDS011;2714;49.852;6.564;2023-02-28T22:25:24;13.03;;;8.00;;
5381;SDS011;2714;49.852;6.564;2023-02-28T22:29:24;11.03;;;7.77;;
5381;SDS011;2714;49.852;6.564;2023-02-28T22:33:25;11.60;;;8.60;;
5381;SDS011;2714;49.852;6.564;2023-02-28T22:37:26;12.70;;;8.13;;
5381;SDS011;2714;49.852;6.564;2023-02-28T22:41:27;12.17;;;8.33;;
5381;SDS011;2714;49.852;6.564;2023-02-28T22:45:28;12.13;;;7.70;;
5381;SDS011;2714;49.852;6.564;2023-02-28T22:49:29;11.53;;;7.57;;
5381;SDS011;2714;49.852;6.564;2023-02-28T22:53:30;12.70;;;8.27;;
5381;SDS011;2714;49.852;6.564;2023-02-28T22:57:31;14.50;;;9.10;;
5381;SDS011;2714;49.852;6.564;2023-02-28T23:01:32;12.87;;;7.80;;
5381;SDS011;2714;49.852;6.564;2023-02-28T23:05:33;13.33;;;7.97;;
5381;SDS011;2714;49.852;6.564;2023-02-28T23:09:34;13.33;;;7.90;;
5381;SDS011;2714;49.852;6.564;2023-02-28T23:13:36;13.20;;;8.20;;
5381;SDS011;2714;49.852;6.564;2023-02-28T23:17:36;13.30;;;8.30;;
5381;SDS011;2714;49.852;6.564;2023-02-28T23:21:37;14.03;;;7.90;;
5381;SDS011;2714;49.852;6.564;2023-02-28T23:25:38;10.43;;;8.20;;
5381;SDS011;2714;49.852;6.564;2023-02-28T23:29:39;14.03;;;8.33;;
5381;SDS011;2714;49.852;6.564;2023-02-28T23:33:41;13.17;;;9.17;;
5381;SDS011;2714;49.852;6.564;2023-02-28T23:37:41;14.10;;;8.37;;
5381;SDS011;2714;49.852;6.564;2023-02-28T23:41:42;12.97;;;8.60;;
5381;SDS011;2714;49.852;6.564;2023-02-28T23:45:43;15.80;;;8.60;;
5381;SDS011;2714;49.852;6.564;2023-02-28T23:49:45;16.20;;;9.60;;
5381;SDS011;2714;49.852;6.564;2023-02-28T23:53:48;12.97;;;8.83;;
5381;SDS011;2714;49.852;6.564;2023-02-28T23:57:50;12.67;;;8.07;;
